createdAt,value
2022-08-17T00:00:10.230Z,20.63
2022-08-17T00:03:15.157Z,20.45
2022-08-17T00:05:50.879Z,20.34
2022-08-17T00:08:20.559Z,20.31
2022-08-17T00:10:48.300Z,20.17
2022-08-17T00:13:24.740Z,20.13
2022-08-17T00:15:54.506Z,20.04
2022-08-17T00:19:01.719Z,19.98
2022-08-17T00:21:10.528Z,20.04
2022-08-17T00:23:37.920Z,19.88
2022-08-17T00:26:04.446Z,19.78
2022-08-17T00:28:31.108Z,19.74
2022-08-17T00:31:00.127Z,19.68
2022-08-17T00:33:31.154Z,19.64
2022-08-17T00:36:00.042Z,19.78
2022-08-17T00:38:28.728Z,19.71
2022-08-17T00:41:00.619Z,19.66
2022-08-17T00:43:40.077Z,19.64
2022-08-17T00:46:15.613Z,19.59
2022-08-17T00:48:43.487Z,19.56
2022-08-17T00:51:13.651Z,19.47
2022-08-17T00:53:47.397Z,19.57
2022-08-17T00:56:23.255Z,19.40
2022-08-17T00:58:55.174Z,19.58
2022-08-17T01:01:24.744Z,19.45
2022-08-17T01:03:55.547Z,19.31
2022-08-17T01:06:30.647Z,19.22
2022-08-17T01:09:01.996Z,19.16
2022-08-17T01:11:33.351Z,19.12
2022-08-17T01:14:03.407Z,19.12
2022-08-17T01:16:37.358Z,19.08
2022-08-17T01:19:30.370Z,19.15
2022-08-17T01:22:09.132Z,19.15
2022-08-17T01:24:39.371Z,19.18
2022-08-17T01:27:09.301Z,19.15
2022-08-17T01:29:39.835Z,19.18
2022-08-17T01:32:07.912Z,19.12
2022-08-17T01:34:43.720Z,19.14
2022-08-17T01:37:35.835Z,19.00
2022-08-17T01:40:15.043Z,18.85
2022-08-17T01:43:00.910Z,18.75
2022-08-17T01:45:36.326Z,18.68
2022-08-17T01:48:06.515Z,18.56
2022-08-17T01:50:38.365Z,18.64
2022-08-17T01:53:14.042Z,18.65
2022-08-17T01:55:47.656Z,18.66
2022-08-17T01:58:15.284Z,18.42
2022-08-17T02:00:47.835Z,18.40
2022-08-17T02:03:30.628Z,18.41
2022-08-17T02:05:58.011Z,18.35
2022-08-17T02:08:39.204Z,18.43
2022-08-17T02:11:19.409Z,18.36
2022-08-17T02:13:47.901Z,18.29
2022-08-17T02:16:24.090Z,18.26
2022-08-17T02:18:50.770Z,18.25
2022-08-17T02:21:17.528Z,18.17
2022-08-17T02:23:47.856Z,18.16
2022-08-17T02:26:23.921Z,18.06
2022-08-17T02:28:53.750Z,18.25
2022-08-17T02:31:21.412Z,18.14
2022-08-17T02:34:03.984Z,18.04
2022-08-17T02:36:35.558Z,18.17
2022-08-17T02:39:08.100Z,18.04
2022-08-17T02:41:35.503Z,18.03
2022-08-17T02:44:02.961Z,18.04
2022-08-17T02:46:31.219Z,18.03
2022-08-17T02:48:58.582Z,17.99
2022-08-17T02:51:26.391Z,17.94
2022-08-17T02:53:53.202Z,17.90
2022-08-17T02:56:39.765Z,17.94
2022-08-17T02:59:06.379Z,18.00
2022-08-17T03:01:33.050Z,18.01
2022-08-17T03:03:59.942Z,17.99
2022-08-17T03:06:26.541Z,17.92
2022-08-17T03:08:53.349Z,17.84
2022-08-17T03:11:19.837Z,17.71
2022-08-17T03:13:46.452Z,17.71
2022-08-17T03:16:12.964Z,17.75
2022-08-17T03:18:39.505Z,17.80
2022-08-17T03:21:08.453Z,17.76
2022-08-17T03:23:41.018Z,17.62
2022-08-17T03:26:12.296Z,17.59
2022-08-17T03:28:42.414Z,17.58
2022-08-17T03:31:09.388Z,17.60
2022-08-17T03:33:35.920Z,17.69
2022-08-17T03:36:02.471Z,17.71
2022-08-17T03:38:29.076Z,17.62
2022-08-17T03:41:06.455Z,17.53
2022-08-17T03:43:34.640Z,17.57
2022-08-17T03:46:28.528Z,17.35
2022-08-17T03:49:20.581Z,17.31
2022-08-17T03:52:05.949Z,17.44
2022-08-17T03:54:51.298Z,17.38
2022-08-17T03:57:19.171Z,17.35
2022-08-17T03:59:46.010Z,17.25
2022-08-17T04:02:20.801Z,17.26
2022-08-17T04:04:51.019Z,17.27
2022-08-17T04:07:20.341Z,17.27
2022-08-17T04:09:46.940Z,17.24
2022-08-17T04:12:16.520Z,17.37
2022-08-17T04:14:53.107Z,17.29
2022-08-17T04:17:27.555Z,17.30
2022-08-17T04:19:55.739Z,17.20
2022-08-17T04:22:30.226Z,17.25
2022-08-17T04:25:18.494Z,17.25
2022-08-17T04:27:45.021Z,17.28
2022-08-17T04:30:13.047Z,17.26
2022-08-17T04:33:05.406Z,17.44
2022-08-17T04:35:43.866Z,17.50
2022-08-17T04:38:14.945Z,17.76
2022-08-17T04:41:01.222Z,18.17
2022-08-17T04:43:28.862Z,18.43
2022-08-17T04:45:58.218Z,18.69
2022-08-17T04:48:29.737Z,18.89
2022-08-17T04:51:06.242Z,18.95
2022-08-17T04:53:33.026Z,19.02
2022-08-17T04:55:59.486Z,19.28
2022-08-17T04:58:26.569Z,19.27
2022-08-17T05:00:53.269Z,19.33
2022-08-17T05:03:19.862Z,19.33
2022-08-17T05:05:49.735Z,19.29
2022-08-17T05:08:19.039Z,19.36
2022-08-17T05:10:47.008Z,19.26
2022-08-17T05:13:25.455Z,19.28
2022-08-17T05:16:01.441Z,19.21
2022-08-17T05:18:29.660Z,19.24
2022-08-17T05:20:57.137Z,19.27
2022-08-17T05:23:26.380Z,19.20
2022-08-17T05:25:55.414Z,19.34
2022-08-17T05:28:27.367Z,19.39
2022-08-17T05:30:57.920Z,19.51
2022-08-17T05:33:28.349Z,19.63
2022-08-17T05:35:58.220Z,19.70
2022-08-17T05:38:27.228Z,19.74
2022-08-17T05:40:54.577Z,19.87
2022-08-17T05:43:34.170Z,19.88
2022-08-17T05:46:15.945Z,20.06
2022-08-17T05:48:46.058Z,20.24
2022-08-17T05:51:28.142Z,20.22
2022-08-17T05:54:20.444Z,20.31
2022-08-17T05:57:03.394Z,20.50
2022-08-17T05:59:30.589Z,20.56
2022-08-17T06:02:15.091Z,20.59
2022-08-17T06:05:16.386Z,20.65
2022-08-17T06:07:53.929Z,20.64
2022-08-17T06:10:31.179Z,20.60
2022-08-17T06:13:03.617Z,20.66
2022-08-17T06:15:54.143Z,20.75
2022-08-17T06:18:25.680Z,20.88
2022-08-17T06:20:56.660Z,20.99
2022-08-17T06:23:47.934Z,21.07
2022-08-17T06:26:17.788Z,21.15
2022-08-17T06:28:54.199Z,21.15
2022-08-17T06:31:29.089Z,21.21
2022-08-17T06:33:58.047Z,21.48
2022-08-17T06:36:29.437Z,21.60
2022-08-17T06:39:19.180Z,21.80
2022-08-17T06:42:05.635Z,21.92
2022-08-17T06:44:51.457Z,22.01
2022-08-17T06:47:29.355Z,22.16
2022-08-17T06:50:08.643Z,22.24
2022-08-17T06:52:47.392Z,22.49
2022-08-17T06:55:21.400Z,22.63
2022-08-17T06:57:52.571Z,22.76
2022-08-17T07:00:24.482Z,22.83
2022-08-17T07:03:12.847Z,22.99
2022-08-17T07:05:44.666Z,23.20
2022-08-17T07:08:35.095Z,23.29
2022-08-17T07:11:08.787Z,23.43
2022-08-17T07:13:51.525Z,23.52
2022-08-17T07:16:28.273Z,23.64
2022-08-17T07:18:56.950Z,23.74
2022-08-17T07:21:46.026Z,23.89
2022-08-17T07:24:35.621Z,24.11
2022-08-17T07:27:06.453Z,24.32
2022-08-17T07:29:39.928Z,24.45
2022-08-17T07:32:08.988Z,24.64
2022-08-17T07:35:00.061Z,24.74
2022-08-17T07:37:26.608Z,24.83
2022-08-17T07:39:59.631Z,24.90
2022-08-17T07:42:46.575Z,25.04
2022-08-17T07:45:35.068Z,25.20
2022-08-17T07:48:20.144Z,25.37
2022-08-17T07:50:49.689Z,25.43
2022-08-17T07:53:25.397Z,25.63
2022-08-17T07:55:53.934Z,25.83
2022-08-17T07:58:23.679Z,26.09
2022-08-17T08:01:07.840Z,26.31
2022-08-17T08:03:42.707Z,26.47
2022-08-17T08:06:24.362Z,26.56
2022-08-17T08:08:54.990Z,26.73
2022-08-17T08:11:40.210Z,26.93
2022-08-17T08:14:31.092Z,27.25
2022-08-17T08:17:01.824Z,27.82
2022-08-17T08:19:30.414Z,28.50
2022-08-17T08:22:11.294Z,28.85
2022-08-17T08:24:40.901Z,30.03
2022-08-17T08:27:39.989Z,30.89
2022-08-17T08:30:12.072Z,31.62
2022-08-17T08:32:57.666Z,32.49
2022-08-17T08:35:35.002Z,33.39
2022-08-17T08:38:15.023Z,33.54
2022-08-17T08:40:41.537Z,34.37
2022-08-17T08:43:14.096Z,35.27
2022-08-17T08:45:59.725Z,35.22
2022-08-17T08:49:11.887Z,34.75
2022-08-17T08:52:01.413Z,35.44
2022-08-17T08:54:46.688Z,35.10
2022-08-17T08:57:34.065Z,34.75
2022-08-17T09:00:15.946Z,35.40
2022-08-17T09:02:45.505Z,34.80
2022-08-17T09:05:14.709Z,35.04
2022-08-17T09:07:54.730Z,35.17
2022-08-17T09:11:01.159Z,34.44
2022-08-17T09:13:55.773Z,33.42
2022-08-17T09:16:37.527Z,33.07
2022-08-17T09:19:11.883Z,32.78
2022-08-17T09:21:52.567Z,32.54
2022-08-17T09:24:40.143Z,33.38
2022-08-17T09:27:13.555Z,34.32
2022-08-17T09:29:48.003Z,35.05
2022-08-17T09:32:28.650Z,35.77
2022-08-17T09:35:01.967Z,36.15
2022-08-17T09:37:42.645Z,36.74
2022-08-17T09:40:18.737Z,37.24
2022-08-17T09:43:12.091Z,37.52
2022-08-17T09:45:50.652Z,37.90
2022-08-17T09:48:29.470Z,38.58
2022-08-17T09:51:14.844Z,37.70
2022-08-17T09:53:44.549Z,36.85
2022-08-17T09:56:46.019Z,35.93
2022-08-17T09:59:38.532Z,35.07
2022-08-17T10:02:40.624Z,36.05
2022-08-17T10:05:19.320Z,35.95
2022-08-17T10:08:09.250Z,36.53
2022-08-17T10:10:56.519Z,36.35
2022-08-17T10:13:37.598Z,36.47
2022-08-17T10:16:12.048Z,37.01
2022-08-17T10:18:52.679Z,38.65
2022-08-17T10:21:38.370Z,38.37
2022-08-17T10:24:26.696Z,37.42
2022-08-17T10:26:57.662Z,38.40
2022-08-17T10:30:04.981Z,38.75
2022-08-17T10:32:57.256Z,38.82
2022-08-17T10:35:35.035Z,39.24
2022-08-17T10:38:41.301Z,39.03
2022-08-17T10:41:27.183Z,39.62
2022-08-17T10:44:38.381Z,39.60
2022-08-17T10:47:18.147Z,40.14
2022-08-17T10:49:55.966Z,39.80
2022-08-17T10:52:22.891Z,40.49
2022-08-17T10:54:51.700Z,40.56
2022-08-17T10:57:34.537Z,41.24
2022-08-17T11:00:15.754Z,41.52
2022-08-17T11:02:54.349Z,41.32
2022-08-17T11:05:28.665Z,41.89
2022-08-17T11:08:26.102Z,41.44
2022-08-17T11:11:23.275Z,40.55
2022-08-17T11:14:23.926Z,40.94
2022-08-17T11:17:17.176Z,40.68
2022-08-17T11:19:43.738Z,40.39
2022-08-17T11:22:20.170Z,40.63
2022-08-17T11:24:51.241Z,40.85
2022-08-17T11:27:28.658Z,40.45
2022-08-17T11:30:07.991Z,39.89
2022-08-17T11:32:47.330Z,40.65
2022-08-17T11:35:38.633Z,39.81
2022-08-17T11:38:16.403Z,40.30
2022-08-17T11:40:46.537Z,41.19
2022-08-17T11:43:27.294Z,40.38
2022-08-17T11:45:53.802Z,41.03
2022-08-17T11:48:56.683Z,41.98
2022-08-17T11:51:44.932Z,41.52
2022-08-17T11:54:34.161Z,41.45
2022-08-17T11:57:46.091Z,42.11
2022-08-17T12:00:47.084Z,42.83
2022-08-17T12:03:24.884Z,43.07
2022-08-17T12:06:02.530Z,43.29
2022-08-17T12:08:32.648Z,43.64
2022-08-17T12:11:04.027Z,43.44
2022-08-17T12:13:39.467Z,43.06
2022-08-17T12:16:08.241Z,43.64
2022-08-17T12:18:37.567Z,42.94
2022-08-17T12:21:12.100Z,42.15
2022-08-17T12:23:47.347Z,42.32
2022-08-17T12:26:19.972Z,42.49
2022-08-17T12:28:49.162Z,42.94
2022-08-17T12:31:23.310Z,42.79
2022-08-17T12:33:51.881Z,42.80
2022-08-17T12:36:24.938Z,42.99
2022-08-17T12:38:59.502Z,43.15
2022-08-17T12:41:47.058Z,42.81
2022-08-17T12:44:19.972Z,42.93
2022-08-17T12:47:19.361Z,41.61
2022-08-17T12:49:53.663Z,42.42
2022-08-17T12:52:20.286Z,42.57
2022-08-17T12:54:59.491Z,43.12
2022-08-17T12:57:32.458Z,43.47
2022-08-17T13:00:14.570Z,43.88
2022-08-17T13:02:48.397Z,43.92
2022-08-17T13:05:29.101Z,43.58
2022-08-17T13:07:58.300Z,43.03
2022-08-17T13:10:33.569Z,42.70
2022-08-17T13:13:17.698Z,42.93
2022-08-17T13:15:59.657Z,42.29
2022-08-17T13:18:58.385Z,41.36
2022-08-17T13:21:28.647Z,40.73
2022-08-17T13:24:03.080Z,41.20
2022-08-17T13:26:34.556Z,41.28
2022-08-17T13:29:05.423Z,41.76
2022-08-17T13:31:52.108Z,41.62
2022-08-17T13:34:26.876Z,40.94
2022-08-17T13:37:26.408Z,41.03
2022-08-17T13:39:54.420Z,40.30
2022-08-17T13:42:30.084Z,40.27
2022-08-17T13:44:57.363Z,40.45
2022-08-17T13:47:24.798Z,41.29
2022-08-17T13:49:51.917Z,41.67
2022-08-17T13:52:33.054Z,41.30
2022-08-17T13:55:03.223Z,39.74
2022-08-17T13:57:29.824Z,39.30
2022-08-17T14:00:33.425Z,39.78
2022-08-17T14:03:02.447Z,40.25
2022-08-17T14:05:30.610Z,40.62
2022-08-17T14:08:00.732Z,39.97
2022-08-17T14:10:28.929Z,39.38
2022-08-17T14:12:56.079Z,39.20
2022-08-17T14:15:56.108Z,39.06
2022-08-17T14:18:49.858Z,38.33
2022-08-17T14:21:09.985Z,37.45
2022-08-17T14:23:54.833Z,37.31
2022-08-17T14:26:23.251Z,36.64
2022-08-17T14:28:54.380Z,36.60
2022-08-17T14:31:22.211Z,36.52
2022-08-17T14:33:54.750Z,35.98
2022-08-17T14:36:24.338Z,35.51
2022-08-17T14:41:21.955Z,34.99
2022-08-17T14:43:49.874Z,34.79
2022-08-17T14:46:16.346Z,34.56
2022-08-17T14:48:42.989Z,34.60
2022-08-17T14:51:09.480Z,34.26
2022-08-17T14:53:36.652Z,34.21
2022-08-17T14:56:03.456Z,34.20
2022-08-17T14:58:30.229Z,34.33
2022-08-17T15:00:57.630Z,34.19
2022-08-17T15:03:24.366Z,34.14
2022-08-17T15:05:50.997Z,33.96
2022-08-17T15:08:17.952Z,34.05
2022-08-17T15:10:44.801Z,34.13
2022-08-17T15:13:22.450Z,34.01
2022-08-17T15:15:49.607Z,33.98
2022-08-17T15:18:16.312Z,33.94
2022-08-17T15:20:44.374Z,34.02
2022-08-17T15:23:16.431Z,33.89
2022-08-17T15:25:43.817Z,33.67
2022-08-17T15:28:10.426Z,33.53
2022-08-17T15:30:37.002Z,33.43
2022-08-17T15:33:03.962Z,33.13
2022-08-17T15:35:33.236Z,33.30
2022-08-17T15:38:11.574Z,33.16
2022-08-17T15:40:43.158Z,32.84
2022-08-17T15:43:14.424Z,32.83
2022-08-17T15:45:41.427Z,32.89
2022-08-17T15:48:08.043Z,32.50
2022-08-17T15:50:35.439Z,32.35
2022-08-17T15:53:03.320Z,32.45
2022-08-17T15:55:31.437Z,32.61
2022-08-17T15:57:58.104Z,32.62
2022-08-17T16:00:26.009Z,32.42
2022-08-17T16:03:13.775Z,32.40
2022-08-17T16:05:40.662Z,32.45
2022-08-17T16:08:07.644Z,32.30
2022-08-17T16:10:34.188Z,32.08
2022-08-17T16:13:03.814Z,32.31
2022-08-17T16:15:33.711Z,32.13
2022-08-17T16:18:00.416Z,32.13
2022-08-17T16:20:27.156Z,32.15
2022-08-17T16:22:54.986Z,31.99
2022-08-17T16:25:51.876Z,31.89
2022-08-17T16:28:16.130Z,31.86
2022-08-17T16:30:42.834Z,31.74
2022-08-17T16:33:11.463Z,31.56
2022-08-17T16:35:38.707Z,31.45
2022-08-17T16:38:05.496Z,31.51
2022-08-17T16:40:35.950Z,31.60
2022-08-17T16:43:04.205Z,31.62
2022-08-17T16:45:36.429Z,31.57
2022-08-17T16:48:03.593Z,31.48
2022-08-17T16:50:30.321Z,31.40
2022-08-17T16:53:10.709Z,31.07
2022-08-17T16:55:38.227Z,31.01
2022-08-17T16:58:05.999Z,30.94
2022-08-17T17:00:33.693Z,30.74
2022-08-17T17:03:29.265Z,30.57
2022-08-17T17:06:37.204Z,30.42
2022-08-17T17:09:11.168Z,30.27
2022-08-17T17:11:47.991Z,30.03
2022-08-17T17:14:20.430Z,29.97
2022-08-17T17:16:57.766Z,29.70
2022-08-17T17:19:35.216Z,29.73
2022-08-17T17:22:16.411Z,29.71
2022-08-17T17:24:59.967Z,29.53
2022-08-17T17:27:35.998Z,29.47
2022-08-17T17:30:13.697Z,29.38
2022-08-17T17:32:58.463Z,29.04
2022-08-17T17:35:52.949Z,28.86
2022-08-17T17:38:33.862Z,28.94
2022-08-17T17:41:05.493Z,28.83
2022-08-17T17:43:39.634Z,28.76
2022-08-17T17:46:33.298Z,28.38
2022-08-17T17:49:00.494Z,28.12
2022-08-17T17:52:06.258Z,28.01
2022-08-17T17:54:47.334Z,27.86
2022-08-17T17:57:47.522Z,27.91
2022-08-17T18:00:21.586Z,28.11
2022-08-17T18:03:18.626Z,28.10
2022-08-17T18:05:53.999Z,28.05
2022-08-17T18:08:36.182Z,27.98
2022-08-17T18:11:12.208Z,27.64
2022-08-17T18:14:03.617Z,27.29
2022-08-17T18:16:32.866Z,27.25
2022-08-17T18:19:00.509Z,27.22
2022-08-17T18:21:38.282Z,27.17
2022-08-17T18:24:07.996Z,27.01
2022-08-17T18:26:36.634Z,26.75
2022-08-17T18:29:24.241Z,26.73
2022-08-17T18:32:15.821Z,26.45
2022-08-17T18:34:47.750Z,26.27
2022-08-17T18:37:34.830Z,26.15
2022-08-17T18:40:20.482Z,26.03
2022-08-17T18:43:08.389Z,25.91
2022-08-17T18:45:41.943Z,25.89
2022-08-17T18:48:48.797Z,25.53
2022-08-17T18:51:41.851Z,25.49
2022-08-17T18:54:24.405Z,25.26
2022-08-17T18:56:59.512Z,25.17
2022-08-17T18:59:31.276Z,25.36
2022-08-17T19:02:24.928Z,25.38
2022-08-17T19:05:13.392Z,25.42
2022-08-17T19:07:46.245Z,25.05
2022-08-17T19:10:33.197Z,25.14
2022-08-17T19:13:35.002Z,24.98
2022-08-17T19:16:17.432Z,24.75
2022-08-17T19:18:53.721Z,24.75
2022-08-17T19:21:30.673Z,24.83
2022-08-17T19:24:19.537Z,24.68
2022-08-17T19:26:56.013Z,24.78
2022-08-17T19:29:41.118Z,24.48
2022-08-17T19:32:10.273Z,24.32
2022-08-17T19:34:39.067Z,24.27
2022-08-17T19:37:16.856Z,24.23
2022-08-17T19:39:58.607Z,24.09
2022-08-17T19:43:16.565Z,24.06
2022-08-17T19:46:26.027Z,23.82
2022-08-17T19:48:58.040Z,23.75
2022-08-17T19:51:43.656Z,23.76
2022-08-17T19:54:44.650Z,23.79
2022-08-17T19:57:14.160Z,23.82
2022-08-17T19:59:51.482Z,23.56
2022-08-17T20:02:36.366Z,23.57
2022-08-17T20:05:08.553Z,23.67
2022-08-17T20:07:43.880Z,23.68
2022-08-17T20:10:39.591Z,23.83
2022-08-17T20:13:11.363Z,23.87
2022-08-17T20:15:42.203Z,23.87
2022-08-17T20:18:44.418Z,23.66
2022-08-17T20:21:33.857Z,23.48
2022-08-17T20:24:15.601Z,23.36
2022-08-17T20:26:58.313Z,23.40
2022-08-17T20:29:37.656Z,23.35
2022-08-17T20:32:16.248Z,23.24
2022-08-17T20:34:46.454Z,23.25
2022-08-17T20:37:12.954Z,23.17
2022-08-17T20:39:39.533Z,23.10
2022-08-17T20:42:31.238Z,22.97
2022-08-17T20:45:05.523Z,22.78
2022-08-17T20:47:35.694Z,22.76
2022-08-17T20:50:13.607Z,22.72
2022-08-17T20:52:58.766Z,22.70
2022-08-17T20:55:35.375Z,22.74
2022-08-17T20:58:24.740Z,22.85
2022-08-17T21:00:57.881Z,22.77
2022-08-17T21:03:25.103Z,22.66
2022-08-17T21:06:00.426Z,22.58
2022-08-17T21:08:58.523Z,22.57
2022-08-17T21:11:56.715Z,22.70
2022-08-17T21:14:33.444Z,22.66
2022-08-17T21:17:12.138Z,22.70
2022-08-17T21:20:08.194Z,22.70
2022-08-17T21:22:53.317Z,22.60
2022-08-17T21:25:50.670Z,22.98
2022-08-17T21:29:00.728Z,23.04
2022-08-17T21:31:34.323Z,22.97
2022-08-17T21:34:16.647Z,22.93
2022-08-17T21:36:44.947Z,22.84
2022-08-17T21:39:14.190Z,22.69
2022-08-17T21:41:53.769Z,22.73
2022-08-17T21:44:32.406Z,22.92
2022-08-17T21:47:24.540Z,23.03
2022-08-17T21:49:52.725Z,23.01
2022-08-17T21:52:22.974Z,22.98
2022-08-17T21:54:53.374Z,23.02
2022-08-17T21:57:21.382Z,22.99
2022-08-17T21:59:53.894Z,23.03
2022-08-17T22:02:34.074Z,22.83
2022-08-17T22:05:03.978Z,22.40
2022-08-17T22:07:58.819Z,22.32
2022-08-17T22:10:31.006Z,22.13
2022-08-17T22:13:06.571Z,21.99
2022-08-17T22:16:27.770Z,21.70
2022-08-17T22:18:57.849Z,21.81
2022-08-17T22:21:25.146Z,21.87
2022-08-17T22:24:21.541Z,21.51
2022-08-17T22:27:21.627Z,21.36
2022-08-17T22:30:00.561Z,21.18
2022-08-17T22:32:33.308Z,21.08
2022-08-17T22:35:42.684Z,21.17
2022-08-17T22:38:18.306Z,21.15
2022-08-17T22:40:51.395Z,21.08
2022-08-17T22:43:25.931Z,21.27
2022-08-17T22:45:54.769Z,21.26
2022-08-17T22:48:27.262Z,21.16
2022-08-17T22:51:12.649Z,21.20
2022-08-17T22:54:06.837Z,21.13
2022-08-17T22:56:52.375Z,21.07
2022-08-17T22:59:34.336Z,21.24
2022-08-17T23:02:24.178Z,20.91
2022-08-17T23:05:18.985Z,20.91
2022-08-17T23:07:46.706Z,20.86
2022-08-17T23:10:14.571Z,20.77
2022-08-17T23:12:41.187Z,20.73
2022-08-17T23:15:17.544Z,20.62
2022-08-17T23:17:45.543Z,20.62
2022-08-17T23:20:14.201Z,20.58
2022-08-17T23:22:51.502Z,20.60
2022-08-17T23:25:28.034Z,20.68
2022-08-17T23:27:57.344Z,20.70
2022-08-17T23:30:31.019Z,20.52
2022-08-17T23:33:01.285Z,20.52
2022-08-17T23:35:39.102Z,20.49
2022-08-17T23:38:07.942Z,20.53
2022-08-17T23:40:34.611Z,20.57
2022-08-17T23:43:01.182Z,20.55
2022-08-17T23:45:32.677Z,20.43
2022-08-17T23:48:00.348Z,20.32
2022-08-17T23:50:29.869Z,20.43
2022-08-17T23:52:57.823Z,20.52
2022-08-17T23:55:24.365Z,20.49
2022-08-17T23:57:51.076Z,20.35
